createdAt,value
2022-08-05T00:00:19.395Z,99284.78
2022-08-05T00:02:50.641Z,99271.47
2022-08-05T00:06:02.958Z,99272.66
2022-08-05T00:08:32.769Z,99279.44
2022-08-05T00:11:00.334Z,99202.69
2022-08-05T00:13:38.800Z,99280.59
2022-08-05T00:16:12.743Z,99282.16
2022-08-05T00:18:50.147Z,99280.13
2022-08-05T00:21:18.882Z,99272.88
2022-08-05T00:23:53.603Z,99274.88
2022-08-05T00:26:34.641Z,99273.63
2022-08-05T00:29:02.172Z,99268.78
2022-08-05T00:31:53.696Z,99276.81
2022-08-05T00:34:55.196Z,99270.88
2022-08-05T00:37:11.460Z,99272.47
2022-08-05T00:39:58.706Z,99271.28
2022-08-05T00:42:32.510Z,99259.22
2022-08-05T00:45:00.693Z,99267.63
2022-08-05T00:47:53.267Z,99260.75
2022-08-05T00:50:15.603Z,99262.34
2022-08-05T00:52:45.549Z,99261.13
2022-08-05T00:55:13.840Z,99268.28
2022-08-05T00:57:55.581Z,99259.06
2022-08-05T01:00:31.482Z,99261.47
2022-08-05T01:02:59.920Z,99254.66
2022-08-05T01:05:27.840Z,99250.97
2022-08-05T01:08:29.757Z,99252.56
2022-08-05T01:10:52.127Z,99254.47
2022-08-05T01:13:57.382Z,99261.66
2022-08-05T01:16:52.197Z,99267.09
2022-08-05T01:19:30.399Z,99267.44
2022-08-05T01:22:24.089Z,99269.78
2022-08-05T01:25:13.637Z,99264.13
2022-08-05T01:28:15.300Z,99259.66
2022-08-05T01:30:57.206Z,99267.22
2022-08-05T01:33:35.198Z,99263.22
2022-08-05T01:36:13.118Z,99268.78
2022-08-05T01:38:46.397Z,99261.56
2022-08-05T01:41:21.991Z,99262.34
2022-08-05T01:43:52.267Z,99264.69
2022-08-05T01:46:42.777Z,99263.47
2022-08-05T01:49:23.877Z,99233.63
2022-08-05T01:52:17.481Z,99264.66
2022-08-05T01:54:52.777Z,99254.97
2022-08-05T01:58:12.154Z,99264.56
2022-08-05T02:00:20.573Z,99264.66
2022-08-05T02:03:04.474Z,99259.38
2022-08-05T02:05:35.870Z,99267.78
2022-08-05T02:08:04.719Z,99270.22
2022-08-05T02:10:45.178Z,99255.34
2022-08-05T02:13:19.208Z,99266.13
2022-08-05T02:15:58.999Z,99262.41
2022-08-05T02:18:52.286Z,99274.03
2022-08-05T02:21:28.394Z,99275.22
2022-08-05T02:24:08.392Z,99240.34
2022-08-05T02:26:54.182Z,99266.13
2022-08-05T02:29:58.060Z,99278.97
2022-08-05T02:32:24.291Z,99274.56
2022-08-05T02:35:13.939Z,99264.53
2022-08-05T02:37:47.788Z,99263.28
2022-08-05T02:40:24.335Z,99262.53
2022-08-05T02:42:55.839Z,99266.94
2022-08-05T02:45:25.456Z,99270.06
2022-08-05T02:48:06.825Z,99268.44
2022-08-05T02:50:44.078Z,99273.28
2022-08-05T02:53:16.203Z,99272.09
2022-08-05T02:55:59.590Z,99285.31
2022-08-05T02:58:28.939Z,99270.50
2022-08-05T03:01:02.140Z,99281.72
2022-08-05T03:03:33.868Z,99272.44
2022-08-05T03:06:57.086Z,99263.94
2022-08-05T03:08:53.422Z,99279.16
2022-08-05T03:11:57.570Z,99275.13
2022-08-05T03:14:13.309Z,99278.66
2022-08-05T03:16:41.503Z,99277.81
2022-08-05T03:19:17.226Z,99280.16
2022-08-05T03:21:56.330Z,99279.25
2022-08-05T03:24:29.952Z,99271.69
2022-08-05T03:26:59.068Z,99272.78
2022-08-05T03:29:45.165Z,99279.16
2022-08-05T03:32:17.841Z,99265.72
2022-08-05T03:34:50.952Z,99269.47
2022-08-05T03:37:21.337Z,99282.31
2022-08-05T03:40:00.984Z,99276.53
2022-08-05T03:42:32.376Z,99281.75
2022-08-05T03:45:22.620Z,99283.75
2022-08-05T03:47:51.569Z,99266.94
2022-08-05T03:50:20.397Z,99264.16
2022-08-05T03:55:52.517Z,99283.50
2022-08-05T03:56:09.836Z,99283.88
2022-08-05T03:58:44.993Z,99278.78
2022-08-05T04:01:15.150Z,99280.94
2022-08-05T04:04:09.911Z,99270.47
2022-08-05T04:06:38.651Z,99292.28
2022-08-05T04:09:20.340Z,99291.97
2022-08-05T04:11:56.372Z,99283.69
2022-08-05T04:14:30.280Z,99290.63
2022-08-05T04:17:00.724Z,99281.16
2022-08-05T04:19:29.333Z,99280.72
2022-08-05T04:22:10.323Z,99280.34
2022-08-05T04:24:52.501Z,99287.34
2022-08-05T04:27:42.130Z,99283.09
2022-08-05T04:30:09.531Z,99283.72
2022-08-05T04:32:37.801Z,99291.06
2022-08-05T04:35:07.367Z,99283.91
2022-08-05T04:38:02.768Z,99277.56
2022-08-05T04:40:44.489Z,99274.75
2022-08-05T04:43:18.412Z,99274.88
2022-08-05T04:45:55.158Z,99286.91
2022-08-05T04:48:27.313Z,99278.06
2022-08-05T04:51:02.632Z,99275.00
2022-08-05T04:53:33.705Z,99278.59
2022-08-05T04:56:33.150Z,99276.28
2022-08-05T04:58:51.521Z,99277.97
2022-08-05T05:02:06.371Z,99281.69
2022-08-05T05:04:07.100Z,99278.97
2022-08-05T05:06:36.551Z,99275.03
2022-08-05T05:09:14.116Z,99284.69
2022-08-05T05:11:53.139Z,99280.00
2022-08-05T05:14:27.798Z,99280.91
2022-08-05T05:17:01.959Z,99269.75
2022-08-05T05:19:36.787Z,99276.59
2022-08-05T05:22:24.032Z,99273.78
2022-08-05T05:25:00.258Z,99256.19
2022-08-05T05:27:45.250Z,99263.84
2022-08-05T05:30:30.841Z,99260.25
2022-08-05T05:33:09.321Z,99258.66
2022-08-05T05:35:47.896Z,99267.94
2022-08-05T05:38:22.943Z,99267.13
2022-08-05T05:40:56.417Z,99272.75
2022-08-05T05:43:56.814Z,99269.53
2022-08-05T05:46:15.992Z,99275.16
2022-08-05T05:48:48.131Z,99273.16
2022-08-05T05:51:23.217Z,99278.75
2022-08-05T05:53:57.806Z,99281.50
2022-08-05T05:56:34.164Z,99267.84
2022-08-05T05:59:05.602Z,99283.44
2022-08-05T06:01:38.010Z,99280.22
2022-08-05T06:04:10.364Z,99297.06
2022-08-05T06:06:47.329Z,99284.13
2022-08-05T06:09:26.634Z,99284.84
2022-08-05T06:12:04.735Z,99276.75
2022-08-05T06:14:32.123Z,99281.88
2022-08-05T06:17:02.096Z,99269.34
2022-08-05T06:19:57.220Z,99276.47
2022-08-05T06:22:33.502Z,99273.44
2022-08-05T06:25:59.279Z,99286.59
2022-08-05T06:28:12.714Z,99286.84
2022-08-05T06:30:37.448Z,99282.22
2022-08-05T06:33:04.759Z,99284.13
2022-08-05T06:36:07.184Z,99281.06
2022-08-05T06:38:35.569Z,99280.94
2022-08-05T06:41:05.583Z,99290.81
2022-08-05T06:43:58.550Z,99271.72
2022-08-05T06:46:30.320Z,99270.31
2022-08-05T06:49:00.742Z,99270.44
2022-08-05T06:51:30.679Z,99284.25
2022-08-05T06:53:59.949Z,99277.66
2022-08-05T06:56:28.375Z,99277.41
2022-08-05T06:58:55.923Z,99278.53
2022-08-05T07:01:23.824Z,99276.88
2022-08-05T07:04:02.257Z,99280.13
2022-08-05T07:06:31.878Z,99282.34
2022-08-05T07:09:04.100Z,99279.31
2022-08-05T07:11:37.044Z,99283.97
2022-08-05T07:14:29.631Z,99277.53
2022-08-05T07:17:58.677Z,99274.63
2022-08-05T07:22:38.689Z,99282.56
2022-08-05T07:25:23.553Z,99269.94
2022-08-05T07:28:05.337Z,99279.38
2022-08-05T07:30:39.385Z,99269.50
2022-08-05T07:33:16.241Z,99271.69
2022-08-05T07:36:03.641Z,99276.41
2022-08-05T07:38:42.772Z,99257.03
2022-08-05T07:42:13.764Z,99273.63
2022-08-05T07:44:18.701Z,99288.69
2022-08-05T07:46:49.587Z,99271.66
2022-08-05T07:49:18.657Z,99271.66
2022-08-05T07:51:53.797Z,99274.56
2022-08-05T07:54:31.639Z,99277.13
2022-08-05T07:57:22.567Z,99279.44
2022-08-05T07:59:53.909Z,99272.19
2022-08-05T08:02:31.382Z,99266.44
2022-08-05T08:05:14.260Z,99271.47
2022-08-05T08:07:58.957Z,99279.19
2022-08-05T08:10:27.058Z,99284.94
2022-08-05T08:12:54.209Z,99265.91
2022-08-05T08:15:37.298Z,99279.19
2022-08-05T08:18:14.226Z,99272.66
2022-08-05T08:21:00.613Z,99269.72
2022-08-05T08:24:02.442Z,99262.34
2022-08-05T08:26:17.970Z,99271.31
2022-08-05T08:28:59.842Z,99272.00
2022-08-05T08:31:37.076Z,99274.50
2022-08-05T08:34:08.778Z,99264.94
2022-08-05T08:36:46.308Z,99265.44
2022-08-05T08:39:19.897Z,99266.22
2022-08-05T08:42:00.108Z,99265.31
2022-08-05T08:45:20.620Z,99254.94
2022-08-05T08:47:47.626Z,99247.72
2022-08-05T08:50:30.673Z,99251.88
2022-08-05T08:53:12.304Z,99236.66
2022-08-05T08:56:03.673Z,99212.19
2022-08-05T08:58:43.699Z,99240.56
2022-08-05T09:01:17.053Z,99248.00
2022-08-05T09:03:55.263Z,99243.44
2022-08-05T09:06:29.578Z,99238.53
2022-08-05T09:09:02.140Z,99226.81
2022-08-05T09:11:51.504Z,99235.63
2022-08-05T09:14:57.071Z,99230.38
2022-08-05T09:17:40.134Z,99220.28
2022-08-05T09:20:02.575Z,99214.84
2022-08-05T09:23:09.378Z,99219.84
2022-08-05T09:26:01.914Z,99216.44
2022-08-05T09:28:31.959Z,99196.81
2022-08-05T09:31:18.258Z,99217.13
2022-08-05T09:33:53.750Z,99210.78
2022-08-05T09:36:21.534Z,99193.72
2022-08-05T09:39:00.186Z,99204.31
2022-08-05T09:41:33.237Z,99197.72
2022-08-05T09:44:07.018Z,99209.53
2022-08-05T09:46:34.992Z,99206.44
2022-08-05T09:49:19.017Z,99197.59
2022-08-05T09:51:48.819Z,99189.63
2022-08-05T09:54:29.658Z,99188.41
2022-08-05T09:57:01.298Z,99195.22
2022-08-05T09:59:35.095Z,99194.63
2022-08-05T10:02:05.300Z,99189.84
2022-08-05T10:04:38.221Z,99177.81
2022-08-05T10:07:20.009Z,99172.81
2022-08-05T10:10:04.227Z,99200.53
2022-08-05T10:12:50.212Z,99185.97
2022-08-05T10:15:26.194Z,99188.16
2022-08-05T10:18:04.479Z,99175.56
2022-08-05T10:20:34.549Z,99174.50
2022-08-05T10:23:02.610Z,99173.28
2022-08-05T10:25:30.807Z,99177.81
2022-08-05T10:28:12.807Z,99172.78
2022-08-05T10:32:50.648Z,99173.19
2022-08-05T10:33:36.203Z,99170.53
2022-08-05T10:36:04.646Z,99157.72
2022-08-05T10:38:35.322Z,99163.22
2022-08-05T10:41:12.394Z,99181.72
2022-08-05T10:43:53.853Z,99129.50
2022-08-05T10:46:23.794Z,99161.50
2022-08-05T10:49:09.590Z,99165.00
2022-08-05T10:52:00.133Z,99158.06
2022-08-05T10:55:18.419Z,99152.81
2022-08-05T10:57:47.671Z,99153.59
2022-08-05T11:00:24.516Z,99159.44
2022-08-05T11:03:23.423Z,99147.22
2022-08-05T11:06:17.447Z,99146.53
2022-08-05T11:09:13.231Z,99141.25
2022-08-05T11:11:53.566Z,99137.91
2022-08-05T11:17:57.811Z,99147.22
2022-08-05T11:20:33.455Z,99148.72
2022-08-05T11:23:21.631Z,99140.09
2022-08-05T11:26:10.972Z,99145.63
2022-08-05T11:28:43.138Z,99133.34
2022-08-05T11:31:10.883Z,99128.41
2022-08-05T11:33:48.218Z,99132.41
2022-08-05T11:36:34.179Z,99121.44
2022-08-05T11:39:09.709Z,99135.22
2022-08-05T11:42:01.106Z,99139.53
2022-08-05T11:44:53.010Z,99128.41
2022-08-05T11:47:49.396Z,99126.75
2022-08-05T11:50:14.259Z,99119.06
2022-08-05T11:52:44.050Z,99106.91
2022-08-05T11:55:16.378Z,99120.47
2022-08-05T11:58:09.998Z,99113.31
2022-08-05T12:00:38.282Z,99114.56
2022-08-05T12:03:29.461Z,99116.28
2022-08-05T12:06:05.824Z,99104.72
2022-08-05T12:08:34.437Z,99113.47
2022-08-05T12:11:09.474Z,99106.22
2022-08-05T12:13:59.413Z,99108.91
2022-08-05T12:16:49.548Z,99104.91
2022-08-05T12:20:25.582Z,99103.16
2022-08-05T12:22:09.398Z,99097.06
2022-08-05T12:24:43.638Z,99094.66
2022-08-05T12:27:32.770Z,99099.66
2022-08-05T12:30:07.039Z,99099.75
2022-08-05T12:32:37.230Z,99095.69
2022-08-05T12:35:08.490Z,99088.41
2022-08-05T12:37:38.482Z,99092.03
2022-08-05T12:40:10.656Z,99060.06
2022-08-05T12:42:39.864Z,99096.56
2022-08-05T12:45:09.896Z,99091.53
2022-08-05T12:47:38.016Z,99079.03
2022-08-05T12:50:16.073Z,99095.81
2022-08-05T12:52:55.179Z,99093.13
2022-08-05T12:55:33.045Z,99093.09
2022-08-05T12:58:49.407Z,99091.59
2022-08-05T13:02:04.441Z,99070.97
2022-08-05T13:03:42.302Z,99081.09
2022-08-05T13:06:18.191Z,99077.56
2022-08-05T13:08:51.426Z,99080.34
2022-08-05T13:12:01.529Z,99077.97
2022-08-05T13:14:20.345Z,99081.09
2022-08-05T13:16:56.401Z,99075.81
2022-08-05T13:19:52.490Z,99076.13
2022-08-05T13:22:29.528Z,99072.72
2022-08-05T13:25:05.457Z,99070.50
2022-08-05T13:27:41.548Z,99061.53
2022-08-05T13:30:33.750Z,99051.75
2022-08-05T13:33:01.400Z,99053.69
2022-08-05T13:35:43.085Z,99054.00
2022-08-05T13:38:28.160Z,99037.53
2022-08-05T13:41:00.086Z,99038.97
2022-08-05T13:43:43.963Z,99043.56
2022-08-05T13:46:13.884Z,99047.34
2022-08-05T13:48:57.169Z,99036.13
2022-08-05T13:51:36.380Z,99028.66
2022-08-05T13:54:12.819Z,99024.56
2022-08-05T13:56:51.203Z,99035.66
2022-08-05T13:59:25.025Z,99023.09
2022-08-05T14:01:58.525Z,99022.06
2022-08-05T14:04:49.472Z,99014.19
2022-08-05T14:07:55.424Z,99023.22
2022-08-05T14:10:28.878Z,99020.41
2022-08-05T14:12:58.654Z,99019.16
2022-08-05T14:16:08.864Z,99015.22
2022-08-05T14:18:18.086Z,99003.34
2022-08-05T14:20:48.138Z,99003.63
2022-08-05T14:23:23.839Z,98999.81
2022-08-05T14:25:53.917Z,99004.44
2022-08-05T14:28:26.308Z,99001.44
2022-08-05T14:30:55.445Z,98990.50
2022-08-05T14:33:23.874Z,99013.16
2022-08-05T14:35:54.358Z,99011.56
2022-08-05T14:38:32.624Z,99018.03
2022-08-05T14:41:06.233Z,99011.22
2022-08-05T14:43:53.978Z,99000.16
2022-08-05T14:46:29.773Z,99005.22
2022-08-05T14:49:06.483Z,98996.97
2022-08-05T14:51:42.457Z,99004.06
2022-08-05T14:54:28.176Z,99010.19
2022-08-05T14:56:58.363Z,98995.09
2022-08-05T14:59:29.511Z,99009.34
2022-08-05T15:02:15.176Z,99000.50
2022-08-05T15:04:44.974Z,98991.78
2022-08-05T15:08:08.913Z,98999.56
2022-08-05T15:10:03.280Z,98985.56
2022-08-05T15:12:51.351Z,98971.97
2022-08-05T15:15:18.141Z,98986.03
2022-08-05T15:18:05.713Z,98980.38
2022-08-05T15:20:33.499Z,98986.88
2022-08-05T15:23:08.859Z,98983.84
2022-08-05T15:25:51.134Z,98978.00
2022-08-05T15:28:23.039Z,98985.28
2022-08-05T15:30:55.658Z,98981.81
2022-08-05T15:34:04.315Z,98992.88
2022-08-05T15:36:17.754Z,98991.31
2022-08-05T15:40:41.579Z,98984.78
2022-08-05T15:41:55.666Z,98983.53
2022-08-05T15:44:24.547Z,98979.09
2022-08-05T15:46:53.038Z,98973.56
2022-08-05T15:49:48.018Z,98978.00
2022-08-05T15:52:16.343Z,98963.44
2022-08-05T15:54:56.576Z,98974.19
2022-08-05T15:57:24.142Z,98971.66
2022-08-05T15:59:55.206Z,98975.41
2022-08-05T16:02:27.795Z,98970.66
2022-08-05T16:04:56.244Z,98981.38
2022-08-05T16:07:23.568Z,98964.16
2022-08-05T16:09:51.479Z,98973.97
2022-08-05T16:12:21.786Z,98970.34
2022-08-05T16:14:49.184Z,98970.28
2022-08-05T16:17:16.554Z,98984.31
2022-08-05T16:20:04.467Z,98970.38
2022-08-05T16:22:34.280Z,98974.53
2022-08-05T16:25:08.163Z,98973.03
2022-08-05T16:28:00.040Z,98967.44
2022-08-05T16:30:28.869Z,98969.50
2022-08-05T16:32:58.308Z,98969.03
2022-08-05T16:35:28.672Z,98970.44
2022-08-05T16:38:00.649Z,98964.38
2022-08-05T16:40:51.615Z,98959.31
2022-08-05T16:43:27.905Z,98950.91
2022-08-05T16:46:04.636Z,98963.09
2022-08-05T16:48:38.768Z,98970.97
2022-08-05T16:51:10.042Z,98973.09
2022-08-05T16:54:03.334Z,98980.03
2022-08-05T16:56:30.317Z,98961.44
2022-08-05T16:58:58.368Z,98958.66
2022-08-05T17:01:26.012Z,98973.28
2022-08-05T17:03:53.612Z,98973.03
2022-08-05T17:06:20.810Z,98971.72
2022-08-05T17:08:54.439Z,98975.09
2022-08-05T17:11:25.392Z,98976.88
2022-08-05T17:14:05.828Z,98968.88
2022-08-05T17:16:36.383Z,98974.59
2022-08-05T17:19:07.365Z,98970.63
2022-08-05T17:21:37.644Z,98976.91
2022-08-05T17:24:27.942Z,98978.22
2022-08-05T17:26:58.706Z,98982.19
2022-08-05T17:29:33.547Z,98968.94
2022-08-05T17:32:17.013Z,98978.66
2022-08-05T17:34:48.061Z,98969.38
2022-08-05T17:37:39.475Z,98981.28
2022-08-05T17:40:10.370Z,98983.22
2022-08-05T17:42:42.995Z,98979.44
2022-08-05T17:45:20.159Z,98983.16
2022-08-05T17:47:54.414Z,98996.84
2022-08-05T17:50:28.715Z,99003.53
2022-08-05T17:53:01.617Z,98981.38
2022-08-05T17:55:38.044Z,98958.16
2022-08-05T17:58:13.541Z,98979.59
2022-08-05T18:00:47.625Z,98984.09
2022-08-05T18:06:11.671Z,99005.78
2022-08-05T18:08:52.532Z,99005.19
2022-08-05T18:11:24.735Z,99019.09
2022-08-05T18:14:01.395Z,98993.81
2022-08-05T18:16:31.505Z,99022.53
2022-08-05T18:18:58.798Z,99019.34
2022-08-05T18:21:28.230Z,99019.34
2022-08-05T18:24:14.395Z,99029.34
2022-08-05T18:26:41.937Z,99020.22
2022-08-05T18:29:11.087Z,99012.44
2022-08-05T18:31:38.476Z,99024.53
2022-08-05T18:34:12.273Z,99032.91
2022-08-05T18:36:41.337Z,99033.28
2022-08-05T18:39:42.508Z,99018.66
2022-08-05T18:42:06.202Z,99029.97
2022-08-05T18:44:49.418Z,99032.59
2022-08-05T18:47:26.665Z,99036.78
2022-08-05T18:50:15.700Z,99026.44
2022-08-05T18:52:51.286Z,99024.22
2022-08-05T18:55:21.893Z,99042.84
2022-08-05T18:57:54.029Z,99049.06
2022-08-05T19:00:30.635Z,99045.78
2022-08-05T19:03:03.589Z,99053.19
2022-08-05T19:06:11.398Z,99052.16
2022-08-05T19:08:22.149Z,99043.09
2022-08-05T19:10:59.764Z,99051.44
2022-08-05T19:13:35.696Z,99042.78
2022-08-05T19:16:04.799Z,99038.00
2022-08-05T19:18:53.323Z,99049.03
2022-08-05T19:21:23.845Z,99047.63
2022-08-05T19:24:05.484Z,99038.44
2022-08-05T19:26:36.204Z,99045.78
2022-08-05T19:29:21.550Z,99035.00
2022-08-05T19:31:51.027Z,99043.50
2022-08-05T19:34:20.345Z,99050.69
2022-08-05T19:36:50.484Z,99049.63
2022-08-05T19:39:23.563Z,99040.59
2022-08-05T19:42:06.247Z,99034.97
2022-08-05T19:44:44.627Z,99038.41
2022-08-05T19:47:15.080Z,99046.44
2022-08-05T19:49:45.139Z,99049.34
2022-08-05T19:52:31.189Z,99051.38
2022-08-05T19:55:06.997Z,99047.50
2022-08-05T19:57:47.647Z,99039.94
2022-08-05T20:00:23.829Z,99052.13
2022-08-05T20:02:53.571Z,99048.59
2022-08-05T20:05:24.614Z,99032.63
2022-08-05T20:07:58.818Z,99043.50
2022-08-05T20:10:26.723Z,99043.88
2022-08-05T20:12:55.392Z,99028.75
2022-08-05T20:15:48.058Z,99031.19
2022-08-05T20:18:33.583Z,99028.50
2022-08-05T20:21:00.020Z,99027.72
2022-08-05T20:23:39.181Z,99036.47
2022-08-05T20:26:17.269Z,99024.47
2022-08-05T20:28:51.113Z,99030.13
2022-08-05T20:31:28.444Z,99025.00
2022-08-05T20:34:10.949Z,99022.72
2022-08-05T20:36:43.188Z,99031.53
2022-08-05T20:39:13.328Z,99039.31
2022-08-05T20:41:43.328Z,99024.16
2022-08-05T20:44:18.507Z,99032.59
2022-08-05T20:46:47.876Z,99028.69
2022-08-05T20:49:18.497Z,99025.88
2022-08-05T20:51:53.688Z,99029.50
2022-08-05T20:54:22.676Z,99018.31
2022-08-05T20:56:53.020Z,99034.38
2022-08-05T20:59:27.156Z,99030.72
2022-08-05T21:02:07.890Z,99015.97
2022-08-05T21:04:36.545Z,99022.00
2022-08-05T21:07:05.853Z,99015.16
2022-08-05T21:09:36.244Z,99014.03
2022-08-05T21:12:07.602Z,99025.28
2022-08-05T21:14:38.919Z,99015.34
2022-08-05T21:17:06.757Z,99011.41
2022-08-05T21:19:47.422Z,99018.59
2022-08-05T21:22:21.913Z,98993.00
2022-08-05T21:24:52.766Z,99012.94
2022-08-05T21:27:25.069Z,99013.75
2022-08-05T21:29:56.609Z,99006.13
2022-08-05T21:32:28.087Z,99014.59
2022-08-05T21:35:16.675Z,99002.22
2022-08-05T21:37:47.124Z,99014.66
2022-08-05T21:40:24.105Z,98998.28
2022-08-05T21:42:53.603Z,99003.50
2022-08-05T21:45:24.952Z,98998.66
2022-08-05T21:48:06.455Z,98986.25
2022-08-05T21:50:36.722Z,99005.44
2022-08-05T21:53:16.319Z,98999.88
2022-08-05T21:56:05.110Z,99005.06
2022-08-05T21:58:33.073Z,99002.66
2022-08-05T22:01:00.603Z,98994.25
2022-08-05T22:03:52.702Z,98996.28
2022-08-05T22:06:23.109Z,98996.25
2022-08-05T22:09:13.310Z,98985.84
2022-08-05T22:11:43.300Z,98997.88
2022-08-05T22:14:37.248Z,98993.06
2022-08-05T22:17:05.317Z,98989.41
2022-08-05T22:20:01.265Z,98987.41
2022-08-05T22:22:27.141Z,98987.50
2022-08-05T22:25:21.228Z,98987.50
2022-08-05T22:28:09.463Z,98985.09
2022-08-05T22:30:43.848Z,98987.53
2022-08-05T22:33:15.591Z,98977.94
2022-08-05T22:35:48.998Z,98986.75
2022-08-05T22:38:19.013Z,98979.13
2022-08-05T22:40:50.016Z,98955.97
2022-08-05T22:43:36.167Z,98973.94
2022-08-05T22:46:13.380Z,98979.13
2022-08-05T22:48:43.160Z,98981.16
2022-08-05T22:51:15.638Z,98986.38
2022-08-05T22:53:50.765Z,98983.19
2022-08-05T22:56:30.581Z,98984.81
2022-08-05T22:59:04.058Z,98978.03
2022-08-05T23:02:05.027Z,98975.66
2022-08-05T23:04:34.157Z,98979.66
2022-08-05T23:07:02.252Z,98968.84
2022-08-05T23:09:58.256Z,98980.53
2022-08-05T23:12:18.117Z,98984.16
2022-08-05T23:14:45.887Z,98984.53
2022-08-05T23:17:34.217Z,98978.94
2022-08-05T23:20:16.581Z,98974.16
2022-08-05T23:22:47.244Z,98974.59
2022-08-05T23:25:52.196Z,98983.41
2022-08-05T23:28:07.626Z,98972.59
2022-08-05T23:30:39.962Z,98981.41
2022-08-05T23:33:22.007Z,98979.81
2022-08-05T23:35:51.228Z,98979.44
2022-08-05T23:38:18.786Z,98976.63
2022-08-05T23:40:49.496Z,98975.81
2022-08-05T23:43:24.965Z,98968.22
2022-08-05T23:46:20.278Z,98935.44
2022-08-05T23:49:01.114Z,98977.03
2022-08-05T23:51:52.374Z,98973.44
2022-08-05T23:54:25.695Z,98971.84
2022-08-05T23:57:03.737Z,98981.44
